Time;durP1;ratioP1;P1;durP2;ratioP2;P2;SDS_P1;SDS_P2;PMS_P1;PMS_P2;Temp;Humidity;BMP_temperature;BMP_pressure;BME280_temperature;BME280_humidity;BME280_pressure;Samples;Min_cycle;Max_cycle;Signal;HPM_P1;HPM_P2
2021/10/04 00:01:29;;;;;;;2.93;1.57;;;;;;;;;;5012850;28;20959;-50
2021/10/04 00:03:55;;;;;;;2.53;1.47;;;;;;;;;;5013764;28;20416;-49
2021/10/04 00:06:21;;;;;;;2.40;1.37;;;;;;;;;;5013854;28;20817;-50
2021/10/04 00:08:47;;;;;;;3.00;1.43;;;;;;;;;;5012797;28;20467;-49
2021/10/04 00:11:13;;;;;;;3.40;1.43;;;;;;;;;;5013760;28;20907;-50
2021/10/04 00:13:39;;;;;;;3.17;1.30;;;;;;;;;;5011428;28;20459;-50
2021/10/04 00:16:06;;;;;;;1.90;1.23;;;;;;;;;;4994216;28;20411;-49
2021/10/04 00:18:32;;;;;;;2.40;1.47;;;;;;;;;;4993809;28;20421;-48
2021/10/04 00:20:58;;;;;;;1.50;1.40;;;;;;;;;;5013301;28;20813;-49
2021/10/04 00:23:24;;;;;;;2.23;1.50;;;;;;;;;;5013305;28;20408;-48
2021/10/04 00:25:50;;;;;;;1.67;1.57;;;;;;;;;;5013793;28;20418;-50
2021/10/04 00:28:16;;;;;;;7.63;1.80;;;;;;;;;;5013571;28;20419;-48
2021/10/04 00:30:42;;;;;;;1.80;1.40;;;;;;;;;;5013297;28;20439;-50
2021/10/04 00:33:08;;;;;;;2.10;1.80;;;;;;;;;;5013073;28;20446;-50
2021/10/04 00:35:34;;;;;;;5.80;1.47;;;;;;;;;;5011762;28;20462;-49
2021/10/04 00:38:00;;;;;;;4.90;1.80;;;;;;;;;;5013357;28;20451;-50
2021/10/04 00:40:28;;;;;;;3.33;1.57;;;;;;;;;;5013375;28;20423;-50
2021/10/04 00:42:54;;;;;;;1.93;1.40;;;;;;;;;;5013078;28;20418;-50
2021/10/04 00:45:20;;;;;;;3.63;1.50;;;;;;;;;;5013200;28;20427;-50
2021/10/04 00:47:47;;;;;;;2.70;1.60;;;;;;;;;;5013286;28;20439;-49
2021/10/04 00:50:13;;;;;;;4.10;1.53;;;;;;;;;;5012936;28;20431;-50
2021/10/04 00:52:39;;;;;;;2.67;1.57;;;;;;;;;;5012567;28;20427;-50
2021/10/04 00:55:07;;;;;;;1.97;1.53;;;;;;;;;;5000657;28;20448;-50
2021/10/04 00:57:33;;;;;;;1.40;1.30;;;;;;;;;;4993307;28;20403;-50
2021/10/04 00:59:59;;;;;;;3.00;1.67;;;;;;;;;;4993336;28;20463;-48
2021/10/04 01:02:25;;;;;;;2.23;1.70;;;;;;;;;;5003917;28;20481;-47
2021/10/04 01:04:51;;;;;;;1.40;1.30;;;;;;;;;;5012114;28;20910;-49
2021/10/04 01:07:17;;;;;;;1.93;1.73;;;;;;;;;;5012535;28;20415;-50
2021/10/04 01:09:43;;;;;;;2.17;1.70;;;;;;;;;;5012833;28;20518;-50
2021/10/04 01:12:10;;;;;;;1.50;1.40;;;;;;;;;;5012261;28;20491;-48
2021/10/04 01:14:36;;;;;;;1.40;1.30;;;;;;;;;;5012689;28;20465;-50
2021/10/04 01:17:02;;;;;;;2.40;1.50;;;;;;;;;;5012684;28;20872;-49
2021/10/04 01:19:28;;;;;;;3.77;1.70;;;;;;;;;;5012402;28;20468;-49
2021/10/04 01:21:54;;;;;;;1.63;1.50;;;;;;;;;;5012189;28;20501;-48
2021/10/04 01:24:20;;;;;;;5.40;1.70;;;;;;;;;;5012782;28;20404;-50
2021/10/04 01:26:47;;;;;;;1.60;1.50;;;;;;;;;;5011069;28;20767;-49
2021/10/04 01:29:13;;;;;;;2.47;1.73;;;;;;;;;;5001368;28;20817;-47
2021/10/04 01:31:39;;;;;;;1.80;1.70;;;;;;;;;;5002281;28;20442;-49
2021/10/04 01:34:05;;;;;;;2.33;1.33;;;;;;;;;;5012205;28;20403;-49
2021/10/04 01:36:32;;;;;;;2.07;1.60;;;;;;;;;;5012362;28;20426;-48
2021/10/04 01:38:58;;;;;;;3.90;1.80;;;;;;;;;;5011614;28;20438;-49
2021/10/04 01:41:26;;;;;;;1.60;1.43;;;;;;;;;;5012182;28;20494;-49
2021/10/04 01:43:53;;;;;;;1.50;1.40;;;;;;;;;;5012130;28;20404;-47
2021/10/04 01:46:19;;;;;;;1.93;1.50;;;;;;;;;;5012222;28;20406;-47
2021/10/04 01:48:45;;;;;;;1.50;1.40;;;;;;;;;;5012203;28;20922;-49
2021/10/04 01:51:11;;;;;;;2.70;1.40;;;;;;;;;;4995754;28;20432;-48
2021/10/04 01:53:41;;;;;;;3.80;1.47;;;;;;;;;;4992341;28;20408;-49
2021/10/04 01:56:07;;;;;;;1.43;1.33;;;;;;;;;;4992486;28;20410;-50
2021/10/04 01:58:33;;;;;;;2.50;1.40;;;;;;;;;;4992433;28;20904;-49
2021/10/04 02:04:02;;;;;;;1.60;1.50;;;;;;;;;;5004416;28;20456;-48
2021/10/04 02:06:28;;;;;;;1.90;1.77;;;;;;;;;;4999190;28;21088;-48
2021/10/04 02:08:54;;;;;;;2.60;1.90;;;;;;;;;;4996378;28;20423;-49
2021/10/04 02:11:20;;;;;;;1.40;1.30;;;;;;;;;;4996319;28;20417;-50
2021/10/04 02:13:46;;;;;;;2.17;1.40;;;;;;;;;;5003869;28;20898;-49
2021/10/04 02:16:12;;;;;;;1.83;1.47;;;;;;;;;;5015903;28;20441;-49
2021/10/04 02:18:38;;;;;;;3.27;1.87;;;;;;;;;;5015796;28;20412;-50
2021/10/04 02:21:04;;;;;;;2.17;1.70;;;;;;;;;;5015696;28;20473;-50
2021/10/04 02:23:30;;;;;;;3.60;1.67;;;;;;;;;;5015621;28;20419;-49
2021/10/04 02:25:56;;;;;;;2.57;1.73;;;;;;;;;;5014774;28;20423;-50
2021/10/04 02:28:22;;;;;;;3.57;1.63;;;;;;;;;;5014146;28;20811;-46
2021/10/04 02:30:51;;;;;;;2.53;1.37;;;;;;;;;;4997507;28;20840;-46
2021/10/04 02:33:16;;;;;;;1.50;1.40;;;;;;;;;;4995703;28;20427;-49
2021/10/04 02:35:42;;;;;;;3.00;1.43;;;;;;;;;;4995963;28;20876;-49
2021/10/04 02:38:09;;;;;;;1.60;1.33;;;;;;;;;;4995931;28;20868;-49
2021/10/04 02:40:35;;;;;;;1.50;1.40;;;;;;;;;;5010276;28;20448;-47
2021/10/04 02:43:01;;;;;;;2.40;1.80;;;;;;;;;;5015111;28;20443;-47
2021/10/04 02:45:27;;;;;;;1.50;1.40;;;;;;;;;;5015380;28;20407;-48
2021/10/04 02:47:55;;;;;;;1.87;1.77;;;;;;;;;;5015403;28;20877;-48
2021/10/04 02:50:22;;;;;;;1.40;1.30;;;;;;;;;;5015296;28;20899;-49
2021/10/04 02:52:48;;;;;;;2.37;1.70;;;;;;;;;;5015000;28;20408;-50
2021/10/04 02:55:14;;;;;;;3.03;1.43;;;;;;;;;;5013452;28;20827;-49
2021/10/04 02:57:40;;;;;;;1.60;1.50;;;;;;;;;;5015176;28;20421;-50
2021/10/04 03:00:08;;;;;;;1.80;1.70;;;;;;;;;;5014796;28;20424;-49
2021/10/04 03:02:34;;;;;;;3.20;1.57;;;;;;;;;;5014698;28;20450;-47
2021/10/04 03:05:00;;;;;;;2.43;1.40;;;;;;;;;;5014954;28;20465;-49
2021/10/04 03:07:26;;;;;;;2.43;1.27;;;;;;;;;;5014886;28;20454;-50
2021/10/04 03:09:52;;;;;;;1.83;1.33;;;;;;;;;;5014754;28;20424;-49
2021/10/04 03:12:18;;;;;;;1.57;1.40;;;;;;;;;;5014567;28;20404;-50
2021/10/04 03:14:44;;;;;;;3.07;1.67;;;;;;;;;;5014548;28;20457;-50
2021/10/04 03:17:10;;;;;;;1.93;1.60;;;;;;;;;;5014876;28;20487;-49
2021/10/04 03:19:36;;;;;;;2.70;1.30;;;;;;;;;;5014786;28;20485;-50
2021/10/04 03:22:04;;;;;;;1.53;1.43;;;;;;;;;;5014371;28;20488;-48
2021/10/04 03:24:30;;;;;;;1.63;1.37;;;;;;;;;;5014659;28;20431;-50
2021/10/04 03:26:56;;;;;;;2.90;1.60;;;;;;;;;;5014587;28;20822;-49
2021/10/04 03:29:22;;;;;;;1.67;1.57;;;;;;;;;;5014228;28;20447;-47
2021/10/04 03:31:48;;;;;;;2.87;1.60;;;;;;;;;;5014175;28;20502;-47
2021/10/04 03:34:13;;;;;;;2.20;1.80;;;;;;;;;;5014455;28;20467;-50
2021/10/04 03:36:39;;;;;;;2.40;1.33;;;;;;;;;;5012645;28;20438;-50
2021/10/04 03:39:06;;;;;;;2.80;1.50;;;;;;;;;;5013710;28;20848;-48
2021/10/04 03:41:33;;;;;;;4.20;1.70;;;;;;;;;;5014200;28;20463;-50
2021/10/04 03:43:59;;;;;;;1.50;1.33;;;;;;;;;;5013982;28;20899;-48
2021/10/04 03:46:25;;;;;;;1.70;1.60;;;;;;;;;;5014218;28;20422;-47
2021/10/04 03:48:51;;;;;;;1.27;1.17;;;;;;;;;;5014318;28;20493;-49
2021/10/04 03:51:17;;;;;;;1.60;1.50;;;;;;;;;;5014126;28;20470;-49
2021/10/04 03:53:43;;;;;;;3.20;1.50;;;;;;;;;;5012928;28;20422;-47
2021/10/04 03:56:10;;;;;;;4.37;1.70;;;;;;;;;;4994513;28;20474;-48
2021/10/04 03:58:36;;;;;;;1.80;1.53;;;;;;;;;;4994268;28;20408;-48
2021/10/04 04:01:02;;;;;;;2.43;1.70;;;;;;;;;;4994212;28;20493;-47
2021/10/04 04:03:28;;;;;;;1.83;1.60;;;;;;;;;;4994188;28;20409;-48
2021/10/04 04:05:54;;;;;;;3.00;1.70;;;;;;;;;;4994362;28;20400;-49
2021/10/04 04:08:21;;;;;;;1.83;1.57;;;;;;;;;;4994210;28;20411;-49
2021/10/04 04:10:47;;;;;;;6.73;1.90;;;;;;;;;;4994107;28;20792;-49
2021/10/04 04:13:13;;;;;;;2.50;1.60;;;;;;;;;;4993773;28;20443;-49
2021/10/04 04:15:39;;;;;;;2.27;1.47;;;;;;;;;;5003551;28;20459;-48
2021/10/04 04:18:05;;;;;;;3.47;1.47;;;;;;;;;;5013579;28;20403;-49
2021/10/04 04:20:31;;;;;;;2.93;1.20;;;;;;;;;;5013595;28;20503;-50
2021/10/04 04:22:57;;;;;;;4.70;1.37;;;;;;;;;;5013140;28;20513;-49
2021/10/04 04:25:23;;;;;;;1.70;1.40;;;;;;;;;;5013288;28;20403;-49
2021/10/04 04:27:49;;;;;;;2.30;1.40;;;;;;;;;;5013076;28;20402;-49
2021/10/04 04:30:16;;;;;;;1.63;1.53;;;;;;;;;;5013282;28;20443;-50
2021/10/04 04:32:43;;;;;;;2.67;1.50;;;;;;;;;;5013118;28;20404;-47
2021/10/04 04:35:10;;;;;;;2.70;1.50;;;;;;;;;;5013460;28;20491;-48
2021/10/04 04:37:37;;;;;;;1.60;1.50;;;;;;;;;;5006403;28;20459;-48
2021/10/04 04:40:04;;;;;;;2.90;1.50;;;;;;;;;;4993482;28;20436;-47
2021/10/04 04:42:30;;;;;;;2.47;1.23;;;;;;;;;;4993359;28;20452;-47
2021/10/04 04:44:56;;;;;;;1.67;1.40;;;;;;;;;;4993570;28;20411;-50
2021/10/04 04:47:22;;;;;;;3.13;1.40;;;;;;;;;;4993704;28;20404;-49
2021/10/04 04:49:48;;;;;;;1.43;1.33;;;;;;;;;;4993518;28;20429;-49
2021/10/04 04:52:14;;;;;;;2.60;1.80;;;;;;;;;;4993091;28;20412;-49
2021/10/04 04:54:40;;;;;;;2.37;2.17;;;;;;;;;;4993360;28;20405;-50
2021/10/04 04:57:06;;;;;;;5.30;1.70;;;;;;;;;;4993366;28;20408;-48
2021/10/04 04:59:33;;;;;;;1.40;1.30;;;;;;;;;;4993225;28;20806;-50
2021/10/04 05:01:59;;;;;;;3.83;1.40;;;;;;;;;;4992914;28;20460;-51
2021/10/04 05:04:26;;;;;;;4.43;2.93;;;;;;;;;;4994434;28;20429;-50
2021/10/04 05:06:52;;;;;;;1.80;1.70;;;;;;;;;;4993188;28;20404;-49
2021/10/04 05:09:18;;;;;;;2.03;1.43;;;;;;;;;;4992956;28;20771;-50
2021/10/04 05:11:44;;;;;;;1.90;1.67;;;;;;;;;;4993156;28;20489;-49
2021/10/04 05:14:10;;;;;;;2.23;1.30;;;;;;;;;;4993030;28;20416;-50
2021/10/04 05:16:35;;;;;;;2.70;1.33;;;;;;;;;;4993150;28;20880;-49
2021/10/04 05:19:01;;;;;;;1.47;1.37;;;;;;;;;;4992943;28;20467;-48
2021/10/04 05:21:27;;;;;;;1.73;1.50;;;;;;;;;;4992774;28;20546;-48
2021/10/04 05:23:53;;;;;;;2.60;1.67;;;;;;;;;;4992660;28;20447;-48
2021/10/04 05:26:19;;;;;;;2.47;1.40;;;;;;;;;;4993058;28;20415;-50
2021/10/04 05:28:45;;;;;;;2.57;1.57;;;;;;;;;;4992673;28;20410;-50
2021/10/04 05:31:11;;;;;;;1.63;1.40;;;;;;;;;;5009356;28;20461;-50
2021/10/04 05:33:37;;;;;;;3.63;1.63;;;;;;;;;;5012130;28;20486;-49
2021/10/04 05:36:04;;;;;;;1.70;1.27;;;;;;;;;;5010353;28;20435;-50
2021/10/04 05:38:30;;;;;;;1.60;1.50;;;;;;;;;;5010410;28;20438;-50
2021/10/04 05:40:56;;;;;;;1.40;1.30;;;;;;;;;;5011994;28;20763;-50
2021/10/04 05:43:23;;;;;;;2.03;1.40;;;;;;;;;;5012165;28;20403;-50
2021/10/04 05:45:49;;;;;;;1.73;1.47;;;;;;;;;;5012176;28;20403;-48
2021/10/04 05:48:15;;;;;;;1.47;1.37;;;;;;;;;;5012323;28;20411;-49
2021/10/04 05:50:41;;;;;;;2.70;1.67;;;;;;;;;;5011192;28;20424;-49
2021/10/04 05:53:07;;;;;;;3.00;1.50;;;;;;;;;;5011134;28;20553;-49
2021/10/04 05:55:33;;;;;;;3.67;1.40;;;;;;;;;;5009872;28;20410;-50
2021/10/04 05:57:59;;;;;;;5.60;1.50;;;;;;;;;;5011404;28;20403;-49
2021/10/04 06:00:25;;;;;;;3.40;1.47;;;;;;;;;;5010892;28;20443;-50
2021/10/04 06:02:51;;;;;;;1.67;1.57;;;;;;;;;;5011168;28;20527;-50
2021/10/04 06:05:17;;;;;;;1.50;1.40;;;;;;;;;;5010136;28;20420;-49
2021/10/04 06:07:43;;;;;;;1.43;1.33;;;;;;;;;;5011240;28;20503;-50
2021/10/04 06:10:12;;;;;;;2.73;1.70;;;;;;;;;;5010498;28;20477;-49
2021/10/04 06:12:39;;;;;;;1.40;1.30;;;;;;;;;;5011090;28;20498;-51
2021/10/04 06:15:05;;;;;;;1.70;1.60;;;;;;;;;;5010056;28;20880;-48
2021/10/04 06:17:31;;;;;;;2.70;1.40;;;;;;;;;;5011531;28;20648;-49
2021/10/04 06:19:57;;;;;;;3.10;2.17;;;;;;;;;;5011133;28;20916;-49
2021/10/04 06:22:23;;;;;;;1.50;1.40;;;;;;;;;;5010844;28;20974;-48
2021/10/04 06:24:49;;;;;;;2.27;1.63;;;;;;;;;;5011277;28;20399;-49
2021/10/04 06:27:16;;;;;;;1.53;1.43;;;;;;;;;;5011040;28;20465;-48
2021/10/04 06:29:42;;;;;;;1.70;1.60;;;;;;;;;;5010327;28;20504;-47
2021/10/04 06:32:08;;;;;;;1.60;1.50;;;;;;;;;;5010180;28;20407;-48
2021/10/04 06:34:34;;;;;;;1.47;1.30;;;;;;;;;;5011127;28;20407;-49
2021/10/04 06:37:00;;;;;;;5.40;2.03;;;;;;;;;;5011042;28;20407;-49
2021/10/04 06:39:26;;;;;;;1.50;1.30;;;;;;;;;;5011794;28;20427;-50
2021/10/04 06:41:53;;;;;;;1.50;1.40;;;;;;;;;;5011166;28;20467;-48
2021/10/04 06:44:19;;;;;;;1.70;1.60;;;;;;;;;;5011698;28;20431;-49
2021/10/04 06:46:45;;;;;;;1.80;1.70;;;;;;;;;;5011640;28;20893;-47
2021/10/04 06:49:11;;;;;;;1.73;1.63;;;;;;;;;;5012104;28;20869;-50
2021/10/04 06:51:37;;;;;;;3.00;1.90;;;;;;;;;;5015026;28;20411;-49
2021/10/04 06:54:03;;;;;;;8.20;1.83;;;;;;;;;;5013511;28;20910;-50
2021/10/04 06:56:30;;;;;;;1.43;1.33;;;;;;;;;;5014138;28;20435;-50
2021/10/04 06:58:56;;;;;;;4.63;1.93;;;;;;;;;;5015085;28;20437;-50
2021/10/04 07:01:22;;;;;;;1.57;1.47;;;;;;;;;;5014977;28;20459;-50
2021/10/04 07:03:48;;;;;;;1.80;1.70;;;;;;;;;;5014748;28;20408;-48
2021/10/04 07:06:14;;;;;;;1.73;1.60;;;;;;;;;;5015063;28;20405;-46
2021/10/04 07:08:40;;;;;;;2.23;1.80;;;;;;;;;;5014953;28;20403;-48
2021/10/04 07:11:06;;;;;;;5.90;1.90;;;;;;;;;;5013156;28;21012;-46
2021/10/04 07:13:35;;;;;;;2.40;1.50;;;;;;;;;;5014649;28;20411;-45
2021/10/04 07:16:01;;;;;;;4.60;1.83;;;;;;;;;;5014939;28;20982;-47
2021/10/04 07:18:27;;;;;;;1.70;1.40;;;;;;;;;;5014623;28;20428;-49
2021/10/04 07:20:52;;;;;;;1.70;1.60;;;;;;;;;;5014844;28;20399;-46
2021/10/04 07:23:18;;;;;;;2.27;1.50;;;;;;;;;;5014498;28;20410;-46
2021/10/04 07:25:44;;;;;;;2.70;1.73;;;;;;;;;;5014748;28;20962;-46
2021/10/04 07:28:10;;;;;;;3.97;1.93;;;;;;;;;;5014684;28;20791;-46
2021/10/04 07:30:37;;;;;;;1.40;1.30;;;;;;;;;;5013475;28;20472;-46
2021/10/04 07:33:04;;;;;;;2.37;1.47;;;;;;;;;;5014212;28;20455;-46
2021/10/04 07:35:30;;;;;;;3.67;1.70;;;;;;;;;;5014671;28;20407;-48
2021/10/04 07:37:57;;;;;;;2.60;1.47;;;;;;;;;;5014467;28;20888;-48
2021/10/04 07:40:24;;;;;;;2.80;1.83;;;;;;;;;;5014286;28;20464;-46
2021/10/04 07:42:50;;;;;;;1.50;1.40;;;;;;;;;;5014095;28;20867;-46
2021/10/04 07:45:16;;;;;;;3.10;1.60;;;;;;;;;;5014323;28;20456;-45
2021/10/04 07:47:42;;;;;;;2.10;1.47;;;;;;;;;;5013305;28;20400;-47
2021/10/04 07:50:10;;;;;;;2.27;1.60;;;;;;;;;;5012442;28;20479;-46
2021/10/04 07:52:36;;;;;;;1.77;1.67;;;;;;;;;;5013675;28;20441;-46
2021/10/04 07:55:05;;;;;;;3.73;2.07;;;;;;;;;;5013320;28;20634;-45
2021/10/04 07:57:32;;;;;;;1.80;1.70;;;;;;;;;;5014091;28;20550;-47
2021/10/04 07:59:57;;;;;;;1.83;1.50;;;;;;;;;;5014098;28;20570;-48
2021/10/04 08:02:23;;;;;;;5.00;1.50;;;;;;;;;;5012768;28;20907;-46
2021/10/04 08:04:49;;;;;;;2.73;1.73;;;;;;;;;;5013976;28;20395;-46
2021/10/04 08:07:15;;;;;;;2.27;1.50;;;;;;;;;;5013914;28;20746;-46
2021/10/04 08:09:41;;;;;;;1.63;1.47;;;;;;;;;;5013782;28;20441;-46
2021/10/04 08:12:08;;;;;;;2.23;1.40;;;;;;;;;;5013632;28;20910;-45
2021/10/04 08:14:35;;;;;;;4.20;1.87;;;;;;;;;;5013799;28;20413;-46
2021/10/04 08:17:01;;;;;;;3.60;1.33;;;;;;;;;;5013771;28;20452;-46
2021/10/04 08:19:27;;;;;;;3.33;1.47;;;;;;;;;;5008920;28;20510;-46
2021/10/04 08:21:54;;;;;;;2.80;1.77;;;;;;;;;;4993834;28;20464;-47
2021/10/04 08:24:20;;;;;;;4.40;1.60;;;;;;;;;;4993972;28;20403;-45
2021/10/04 08:26:46;;;;;;;2.90;1.30;;;;;;;;;;4994056;28;20408;-46
2021/10/04 08:29:13;;;;;;;2.27;1.80;;;;;;;;;;4993767;28;20440;-46
2021/10/04 08:31:39;;;;;;;1.50;1.37;;;;;;;;;;4993786;28;20408;-47
2021/10/04 08:34:06;;;;;;;1.20;1.10;;;;;;;;;;4993775;28;20436;-45
2021/10/04 08:36:33;;;;;;;1.40;1.30;;;;;;;;;;4994009;28;20374;-46
2021/10/04 08:38:59;;;;;;;1.60;1.50;;;;;;;;;;4993787;28;20466;-46
2021/10/04 08:41:25;;;;;;;2.87;1.47;;;;;;;;;;4993596;28;20942;-47
2021/10/04 08:43:54;;;;;;;2.13;1.67;;;;;;;;;;4993451;28;20396;-47
2021/10/04 08:46:20;;;;;;;2.10;1.40;;;;;;;;;;4993720;28;20389;-47
2021/10/04 08:48:47;;;;;;;3.43;1.20;;;;;;;;;;4993507;28;20407;-46
2021/10/04 08:51:13;;;;;;;2.07;1.33;;;;;;;;;;5002839;28;20589;-49
2021/10/04 08:53:39;;;;;;;2.13;1.20;;;;;;;;;;5012987;28;20415;-47
2021/10/04 08:56:05;;;;;;;5.00;1.67;;;;;;;;;;5013130;28;20410;-49
2021/10/04 08:58:32;;;;;;;2.23;1.70;;;;;;;;;;5012931;28;20410;-47
2021/10/04 09:01:01;;;;;;;1.50;1.40;;;;;;;;;;5012910;28;20407;-46
2021/10/04 09:03:27;;;;;;;6.27;1.70;;;;;;;;;;5012667;28;20374;-45
2021/10/04 09:05:56;;;;;;;4.30;1.70;;;;;;;;;;5013004;28;20398;-46
2021/10/04 09:08:22;;;;;;;3.03;1.47;;;;;;;;;;5012928;28;20381;-46
2021/10/04 09:10:55;;;;;;;3.23;1.77;;;;;;;;;;5012741;28;20836;-52
2021/10/04 09:13:21;;;;;;;3.10;1.70;;;;;;;;;;5012629;28;20409;-46
2021/10/04 09:15:48;;;;;;;3.33;1.67;;;;;;;;;;5012711;28;20407;-46
2021/10/04 09:18:21;;;;;;;3.40;2.30;;;;;;;;;;5012693;28;20857;-45
2021/10/04 09:21:01;;;;;;;1.27;1.17;;;;;;;;;;5005555;28;20448;-47
2021/10/04 09:23:32;;;;;;;2.43;1.70;;;;;;;;;;4992797;28;20418;-46
2021/10/04 09:25:58;;;;;;;2.90;1.40;;;;;;;;;;4993083;28;20872;-47
2021/10/04 09:28:44;;;;;;;5.83;1.60;;;;;;;;;;4992954;28;20437;-48
2021/10/04 09:31:24;;;;;;;4.10;1.33;;;;;;;;;;4992886;28;20863;-46
2021/10/04 09:34:08;;;;;;;1.77;1.20;;;;;;;;;;4992663;28;20454;-48
2021/10/04 09:36:42;;;;;;;1.33;1.23;;;;;;;;;;4992855;28;20408;-46
2021/10/04 09:39:29;;;;;;;1.30;1.20;;;;;;;;;;4996187;28;20419;-46
2021/10/04 09:41:55;;;;;;;2.73;1.40;;;;;;;;;;4992396;28;20870;-46
2021/10/04 09:44:21;;;;;;;4.03;1.50;;;;;;;;;;4992658;28;20433;-47
2021/10/04 09:46:46;;;;;;;6.13;1.97;;;;;;;;;;4992688;28;20419;-47
2021/10/04 09:49:12;;;;;;;4.77;1.20;;;;;;;;;;4992576;28;20395;-49
2021/10/04 09:51:51;;;;;;;4.00;1.40;;;;;;;;;;4992654;28;20373;-51
2021/10/04 09:54:17;;;;;;;2.40;1.37;;;;;;;;;;4992712;28;20407;-48
2021/10/04 09:56:44;;;;;;;3.43;1.23;;;;;;;;;;4992511;28;20389;-49
2021/10/04 09:59:10;;;;;;;1.87;1.20;;;;;;;;;;4992596;28;20410;-46
2021/10/04 10:01:37;;;;;;;1.63;1.53;;;;;;;;;;4992333;28;20441;-46
2021/10/04 10:04:03;;;;;;;1.47;1.20;;;;;;;;;;4992501;28;20429;-46
2021/10/04 10:06:33;;;;;;;9.07;6.43;;;;;;;;;;4992551;28;20436;-46
2021/10/04 10:08:59;;;;;;;2.87;2.00;;;;;;;;;;4992435;28;20431;-46
2021/10/04 10:11:28;;;;;;;1.93;1.63;;;;;;;;;;4993540;28;20484;-49
2021/10/04 10:13:54;;;;;;;3.90;1.70;;;;;;;;;;4992391;28;20467;-48
2021/10/04 10:16:23;;;;;;;3.20;1.43;;;;;;;;;;4992365;28;20815;-48
2021/10/04 10:18:52;;;;;;;2.23;1.33;;;;;;;;;;5011233;28;20465;-46
2021/10/04 10:21:20;;;;;;;2.47;1.40;;;;;;;;;;5011839;28;20483;-46
2021/10/04 10:23:49;;;;;;;4.47;1.70;;;;;;;;;;5011683;28;20810;-47
2021/10/04 10:26:29;;;;;;;4.93;1.47;;;;;;;;;;5014465;28;20479;-46
2021/10/04 10:29:12;;;;;;;3.90;1.50;;;;;;;;;;5015446;28;20447;-48
2021/10/04 10:31:55;;;;;;;5.17;1.80;;;;;;;;;;5015560;28;20380;-53
2021/10/04 10:34:23;;;;;;;1.50;1.40;;;;;;;;;;5015561;28;20914;-45
2021/10/04 10:36:55;;;;;;;1.27;1.10;;;;;;;;;;5015778;28;20415;-47
2021/10/04 10:39:31;;;;;;;1.40;1.30;;;;;;;;;;5008070;28;20951;-46
2021/10/04 10:42:17;;;;;;;4.63;1.60;;;;;;;;;;4997071;28;20478;-46
2021/10/04 10:44:55;;;;;;;3.03;1.60;;;;;;;;;;4995776;28;20380;-47
2021/10/04 10:47:36;;;;;;;2.47;1.20;;;;;;;;;;4995845;28;20379;-47
2021/10/04 10:50:11;;;;;;;1.47;1.27;;;;;;;;;;4995606;28;20476;-46
2021/10/04 10:52:47;;;;;;;3.33;1.37;;;;;;;;;;4995494;28;20404;-48
2021/10/04 10:55:19;;;;;;;3.00;1.43;;;;;;;;;;4995641;28;20813;-48
2021/10/04 10:58:00;;;;;;;2.73;1.80;;;;;;;;;;4995638;28;20410;-48
2021/10/04 11:00:25;;;;;;;1.30;1.20;;;;;;;;;;4995526;28;20419;-46
2021/10/04 11:03:03;;;;;;;4.53;1.63;;;;;;;;;;4995202;28;20516;-47
2021/10/04 11:05:38;;;;;;;3.17;1.23;;;;;;;;;;4995387;28;20409;-48
2021/10/04 11:08:19;;;;;;;1.60;1.50;;;;;;;;;;4995528;28;20501;-46
2021/10/04 11:10:48;;;;;;;1.50;1.40;;;;;;;;;;4996312;28;20521;-47
2021/10/04 11:13:27;;;;;;;4.53;1.70;;;;;;;;;;4995236;28;20823;-46
2021/10/04 11:15:54;;;;;;;2.20;1.43;;;;;;;;;;4995371;28;20875;-47
2021/10/04 11:18:21;;;;;;;3.80;1.60;;;;;;;;;;4995362;28;20404;-47
2021/10/04 11:20:48;;;;;;;1.67;1.37;;;;;;;;;;4995248;28;20432;-47
2021/10/04 11:23:18;;;;;;;2.10;1.30;;;;;;;;;;4995061;28;20456;-47
2021/10/04 11:25:45;;;;;;;1.90;1.40;;;;;;;;;;4994910;28;20511;-48
2021/10/04 11:28:13;;;;;;;3.07;1.20;;;;;;;;;;5001650;28;20979;-52
2021/10/04 11:31:11;;;;;;;3.03;1.40;;;;;;;;;;5016425;28;20449;-51
2021/10/04 11:33:40;;;;;;;5.70;1.30;;;;;;;;;;5037971;28;20436;-51
2021/10/04 11:36:12;;;;;;;2.90;1.27;;;;;;;;;;5030205;28;20893;-50
2021/10/04 11:38:44;;;;;;;5.23;1.53;;;;;;;;;;5013013;28;20913;-51
2021/10/04 11:41:10;;;;;;;1.53;1.23;;;;;;;;;;5007214;28;20558;-47
2021/10/04 11:43:43;;;;;;;2.60;1.80;;;;;;;;;;5020610;28;20453;-48
2021/10/04 11:46:17;;;;;;;1.83;1.50;;;;;;;;;;5022105;28;20414;-51
2021/10/04 11:48:43;;;;;;;3.13;1.30;;;;;;;;;;5024499;28;20407;-51
2021/10/04 11:51:11;;;;;;;4.30;1.50;;;;;;;;;;5014563;28;20812;-50
2021/10/04 11:53:39;;;;;;;8.13;1.97;;;;;;;;;;5013964;28;20403;-51
2021/10/04 11:56:06;;;;;;;4.30;1.23;;;;;;;;;;5012515;28;20472;-51
2021/10/04 11:58:33;;;;;;;2.93;1.00;;;;;;;;;;5013986;28;20927;-50
2021/10/04 12:01:00;;;;;;;2.10;1.40;;;;;;;;;;5013950;28;20436;-51
2021/10/04 12:03:33;;;;;;;1.30;0.97;;;;;;;;;;5013811;28;20401;-49
2021/10/04 12:05:59;;;;;;;3.23;1.37;;;;;;;;;;5013918;28;20486;-51
2021/10/04 12:08:26;;;;;;;1.57;1.37;;;;;;;;;;5013991;28;20435;-51
2021/10/04 12:10:57;;;;;;;4.33;1.37;;;;;;;;;;5013882;28;20419;-51
2021/10/04 12:13:27;;;;;;;5.90;1.27;;;;;;;;;;5013697;28;20399;-49
2021/10/04 12:15:55;;;;;;;2.10;1.20;;;;;;;;;;5013803;28;20415;-50
2021/10/04 12:18:21;;;;;;;1.10;1.00;;;;;;;;;;5013669;28;20403;-51
2021/10/04 12:20:48;;;;;;;1.53;1.30;;;;;;;;;;5013725;28;20853;-51
2021/10/04 12:23:15;;;;;;;1.40;1.20;;;;;;;;;;5013461;28;21013;-50
2021/10/04 12:25:40;;;;;;;3.90;1.30;;;;;;;;;;5013629;28;20403;-50
2021/10/04 12:28:07;;;;;;;2.17;1.03;;;;;;;;;;5013546;28;20406;-50
2021/10/04 12:30:54;;;;;;;3.30;1.37;;;;;;;;;;5013370;28;20497;-50
2021/10/04 12:33:21;;;;;;;1.57;1.20;;;;;;;;;;5013292;28;20443;-50
2021/10/04 12:35:49;;;;;;;3.00;1.60;;;;;;;;;;5013692;28;20494;-51
2021/10/04 12:38:17;;;;;;;2.17;1.40;;;;;;;;;;5011783;28;20439;-50
2021/10/04 12:40:45;;;;;;;1.57;1.47;;;;;;;;;;5012819;28;20446;-48
2021/10/04 12:43:14;;;;;;;3.93;1.40;;;;;;;;;;5012146;28;20489;-47
2021/10/04 12:45:51;;;;;;;1.10;1.00;;;;;;;;;;4993642;28;20411;-50
2021/10/04 12:48:17;;;;;;;4.87;1.67;;;;;;;;;;5012889;28;20794;-49
2021/10/04 12:50:44;;;;;;;2.97;1.47;;;;;;;;;;5012336;28;20447;-48
2021/10/04 12:53:24;;;;;;;2.93;1.60;;;;;;;;;;5012140;28;20803;-51
2021/10/04 12:56:04;;;;;;;1.93;1.20;;;;;;;;;;5012185;28;20530;-51
2021/10/04 12:58:31;;;;;;;2.90;1.70;;;;;;;;;;5012166;28;20572;-51
2021/10/04 13:01:18;;;;;;;2.40;1.30;;;;;;;;;;5012730;28;20405;-49
2021/10/04 13:03:51;;;;;;;1.60;1.50;;;;;;;;;;5011668;28;20435;-51
2021/10/04 13:06:17;;;;;;;2.70;2.50;;;;;;;;;;5012876;28;20419;-49
2021/10/04 13:08:43;;;;;;;1.80;1.40;;;;;;;;;;5011978;28;20479;-49
2021/10/04 13:11:09;;;;;;;1.30;1.10;;;;;;;;;;5012261;28;20427;-49
2021/10/04 13:13:35;;;;;;;3.27;1.37;;;;;;;;;;5012604;28;20399;-48
2021/10/04 13:16:03;;;;;;;3.60;1.30;;;;;;;;;;5012550;28;20457;-51
2021/10/04 13:18:29;;;;;;;1.10;1.00;;;;;;;;;;5011168;28;20513;-51
2021/10/04 13:20:55;;;;;;;1.80;1.23;;;;;;;;;;5012533;28;20430;-50
2021/10/04 13:23:21;;;;;;;1.20;0.90;;;;;;;;;;5012361;28;20569;-51
2021/10/04 13:25:47;;;;;;;2.10;1.20;;;;;;;;;;5012625;28;20444;-50
2021/10/04 13:28:13;;;;;;;2.20;1.40;;;;;;;;;;5012562;28;20467;-50
2021/10/04 13:30:39;;;;;;;1.37;1.00;;;;;;;;;;5012375;28;20946;-50
2021/10/04 13:33:05;;;;;;;1.10;1.00;;;;;;;;;;5012290;28;20776;-50
2021/10/04 13:35:31;;;;;;;5.37;1.17;;;;;;;;;;5004581;28;20801;-49
2021/10/04 13:37:57;;;;;;;3.10;1.10;;;;;;;;;;5012360;28;20815;-49
2021/10/04 13:40:23;;;;;;;2.40;1.20;;;;;;;;;;5012282;28;20426;-48
2021/10/04 13:42:49;;;;;;;1.10;1.00;;;;;;;;;;5011977;28;20561;-51
2021/10/04 13:45:15;;;;;;;1.30;1.10;;;;;;;;;;5012362;28;20454;-51
2021/10/04 13:47:41;;;;;;;1.40;1.10;;;;;;;;;;5012658;28;20803;-50
2021/10/04 13:50:08;;;;;;;2.07;1.03;;;;;;;;;;5012134;28;20451;-51
2021/10/04 13:52:36;;;;;;;2.80;1.10;;;;;;;;;;5011913;28;20407;-48
2021/10/04 13:55:03;;;;;;;1.90;1.10;;;;;;;;;;5001237;28;21006;-49
2021/10/04 13:57:29;;;;;;;2.67;1.40;;;;;;;;;;4992574;28;20773;-51
2021/10/04 13:59:55;;;;;;;1.63;1.00;;;;;;;;;;4991645;28;20431;-50
2021/10/04 14:02:22;;;;;;;2.40;1.03;;;;;;;;;;4992227;28;20969;-50
2021/10/04 14:04:48;;;;;;;2.10;1.33;;;;;;;;;;4992528;28;20819;-51
2021/10/04 14:07:14;;;;;;;1.53;1.10;;;;;;;;;;5008584;28;20774;-51
2021/10/04 14:09:40;;;;;;;1.63;0.90;;;;;;;;;;5011934;28;20427;-50
2021/10/04 14:12:06;;;;;;;1.40;1.23;;;;;;;;;;5011683;28;20403;-50
2021/10/04 14:14:32;;;;;;;1.40;1.10;;;;;;;;;;5012031;28;20823;-50
2021/10/04 14:16:58;;;;;;;6.50;1.10;;;;;;;;;;4997945;28;20871;-49
2021/10/04 14:19:24;;;;;;;3.33;1.27;;;;;;;;;;4992144;28;20528;-50
2021/10/04 14:21:50;;;;;;;1.90;1.00;;;;;;;;;;4991992;28;20451;-49
2021/10/04 14:24:16;;;;;;;4.50;1.00;;;;;;;;;;4998007;28;20462;-50
2021/10/04 14:26:42;;;;;;;1.87;1.60;;;;;;;;;;5011859;28;20407;-50
2021/10/04 14:29:08;;;;;;;1.60;1.00;;;;;;;;;;5011046;28;20800;-50
2021/10/04 14:31:34;;;;;;;1.60;1.10;;;;;;;;;;5011663;28;20410;-50
2021/10/04 14:34:00;;;;;;;8.63;1.27;;;;;;;;;;5011429;28;20438;-51
2021/10/04 14:36:26;;;;;;;1.67;0.90;;;;;;;;;;5011703;28;20400;-50
2021/10/04 14:38:52;;;;;;;1.43;1.10;;;;;;;;;;5011810;28;20795;-50
2021/10/04 14:41:19;;;;;;;2.23;1.10;;;;;;;;;;5009774;28;20975;-49
2021/10/04 14:43:45;;;;;;;1.10;1.00;;;;;;;;;;5010998;28;20918;-50
2021/10/04 14:46:11;;;;;;;1.10;1.00;;;;;;;;;;5011706;28;20403;-51
2021/10/04 14:48:37;;;;;;;7.47;1.20;;;;;;;;;;5010791;28;20403;-49